CDT,Max TemperatureF,Mean TemperatureF,Min TemperatureF,Max Dew PointF,MeanDew PointF,Min DewpointF,Max Humidity, Mean Humidity, Min Humidity, Max Sea Level PressureIn, Mean Sea Level PressureIn, Min Sea Level PressureIn, Max VisibilityMiles, Mean VisibilityMiles, Min VisibilityMiles, Max Wind SpeedMPH, Mean Wind SpeedMPH, Max Gust SpeedMPH,PrecipitationIn, CloudCover, Events, WindDirDegrees
2013-3-1,32,27,22,26,23,17,85,79,72,30.28,30.18,30.11,10,8,2,17,11,20,0.01,8,Snow,333
2013-3-2,32,25,17,20,17,14,84,69,53,30.34,30.29,30.24,10,9,5,16,9,19,T,5,Snow,319
2013-3-3,38,26,13,23,17,11,92,68,44,30.24,30.09,29.93,10,9,4,16,8,21,T,7,,134
2013-3-4,50,42,34,32,28,23,76,63,49,29.92,29.79,29.71,10,10,10,16,12,23,0.00,2,,95
2013-3-5,37,34,31,32,25,19,96,76,56,30.25,30.06,29.86,10,8,2,31,19,44,0.04,8,Snow,306
2013-3-6,35,30,24,22,20,19,75,64,52,30.42,30.35,30.23,10,10,10,30,9,36,T,6,,339
2013-3-7,45,32,18,27,23,16,91,68,45,30.39,30.32,30.26,10,10,6,14,8,19,0.00,0,,101
2013-3-8,51,41,31,31,28,26,85,63,41,30.34,30.25,30.12,10,10,10,17,11,21,0.01,2,Rain,122
2013-3-9,67,53,39,48,38,29,92,65,37,30.09,29.90,29.70,10,9,2,30,15,38,0.67,7,Rain,150
2013-3-10,56,45,33,54,46,31,96,87,77,29.80,29.69,29.62,10,9,2,28,14,35,0.84,7,Rain,211
2013-3-11,36,32,27,31,26,23,89,79,69,30.01,29.85,29.76,10,9,4,22,13,28,T,7,Rain,277
2013-3-12,47,37,26,28,23,18,81,63,45,30.27,30.14,30.03,10,10,10,28,13,37,T,3,Rain,284
2013-3-13,43,35,26,19,17,15,69,51,33,30.48,30.38,30.28,10,10,10,22,9,27,0.00,2,,312
2013-3-14,67,48,29,41,29,18,69,51,33,30.38,30.19,30.06,10,10,10,20,9,26,0.00,3,,181
2013-3-15,79,59,39,46,42,37,92,60,28,30.07,29.85,29.66,10,10,10,24,10,29,0.00,0,,197
2013-3-16,65,51,37,48,38,33,86,71,56,30.07,29.92,29.66,10,8,3,24,13,29,0.01,6,Rain,8
2013-3-17,37,36,34,34,32,29,100,88,76,30.07,29.97,29.77,10,8,2,21,13,26,0.35,8,Rain,71
2013-3-18,52,43,33,36,32,18,100,70,39,30.05,29.81,29.71,10,7,2,29,12,40,0.01,6,Rain,318
2013-3-19,46,38,30,32,18,11,96,61,25,30.24,30.18,30.07,10,10,10,15,8,18,0.00,4,,284
2013-3-20,35,29,23,32,17,8,96,64,32,30.33,30.23,30.16,10,9,5,25,13,32,0.00,2,,309
2013-3-21,40,29,18,27,14,9,85,59,33,30.15,30.05,29.96,10,10,10,15,4,17,0.00,4,,108
2013-3-22,40,36,32,30,25,18,78,66,54,30.02,29.99,29.97,10,10,10,12,7,15,0.00,8,,97
2013-3-23,50,43,35,36,29,24,92,67,42,30.02,29.95,29.86,10,9,4,22,12,28,0.34,8,Rain,53
2013-3-24,35,32,29,35,29,25,100,93,85,29.96,29.79,29.67,7,2,0,31,19,37,0.52,8,Fog-Rain-Snow,349
2013-3-25,34,30,26,29,25,22,92,81,69,30.27,30.07,29.94,10,6,1,22,13,29,0.04,8,Snow,300
2013-3-26,38,31,23,22,20,19,88,68,48,30.39,30.34,30.27,10,10,10,17,7,21,0.00,1,,304
2013-3-27,43,33,22,30,24,19,81,65,49,30.39,30.34,30.26,10,10,10,14,5,16,T,4,Rain,120
2013-3-28,60,49,37,40,34,27,76,59,42,30.30,30.25,30.18,10,10,10,16,9,19,0.00,7,,106
2013-3-29,65,51,37,44,39,35,92,65,37,30.23,30.19,30.16,10,10,7,14,7,18,0.00,1,,69
2013-3-30,51,48,45,48,45,40,93,82,71,30.16,30.02,29.91,10,6,1,17,8,20,0.29,6,Rain,133
2013-3-31,67,56,45,49,44,31,100,67,34,29.96,29.92,29.88,10,6,0,22,11,26,T,4,Fog,300